Portada
METAR-TAF:

METAR-TAF

Aeropuertos :

Aeropuerto de Vigo

Vigo, España

latitud: 42-13N, longitud: 008-38W, altitud: 264 m

Observación

El informe se hizo hace 38 minutos, a las 15:00 UTC
Viento 3 kt del sur-suroeste, variando entre este-sureste y oeste
Temperatura 20°C
Humedad 43%
Presión 1020 hPa
Visibilidad 10 km o más
sin nubes por debajo de 1500 m y sin presencia de cumulonimbus.

METAR: LEVX 161500Z 21003KT 120V270 CAVOK 20/07 Q1020 NOSIG

Hora: 16:38 (15:38 UTC)

Pronóstico

El informe se hizo hace 4 horas y 38 minutos, a las 11:00 UTC
Pronóstico válido del 16 a las 12 UTC al 17 a las 12 UTC
Viento 8 kt del sur
Visibilidad 10 km o más
sin nubes por debajo de 1500 m y sin presencia de cumulonimbus.
Probabilidad 30% :
Temporalmente
del 16 a las 14 UTC al 16 a las 18 UTC
Viento 10 kt del oeste

TAF: LEVX 161100Z 1612/1712 18008KT CAVOK TX19/1614Z TN06/1707Z PROB30 TEMPO 1614/1618 26010KT

Observaciones y pronósticos meteorológicos de más de 4000 aeropuertos (mensajes METAR y TAF).

Los puntos amarillos y rojos representan las estaciones disponibles.

Ponga el ratón en el punto deseado para ver el nombre de la estación.

Haga clic para ver las observaciones y los pronósticos meteorológicos.

Para cambiar el mapa : haga clic en los botones verdes con una cruz de color negro para hacer un zoom, en el botón verde con un guión para alejar o en las flechas verdes para mapas adyacentes.


METAR-TAF: